CEB961 RPLL-RPMD
Flight info
| Callsign | CEB961 |
|---|---|
| Flight time | 1h 19m |
| Altitude | 39000 |
| Route | IPATA2R IPATA B462 MASBA W9A BN W9 RIMAR RIMAR2P |
| Aircraft | A339/H-SADE1E2E3GHIJ3J5M1P2RWXY/LB2D1 |
Departure
| Time | 2026-05-08 05:30 |
|---|---|
| Airport | Ninoy Aquino International Airport (RPLL) |
Arrival
| Time | 2026-05-08 06:50 |
|---|---|
| Airport | Francisco Bangoy International Airport (RPMD) |
| Time | Latitude | Longitude | Altitude | Speed | Heading |
|---|---|---|---|---|---|
| 2026-05-08 05:07 | 14.52141 | 121.01037 | 75 ft | 0 kts | 46° |
| 2026-05-08 05:14 | 14.52128 | 121.01023 | 64 ft | 3 kts | 46° |
| 2026-05-08 05:14 | 14.52112 | 121.01005 | 64 ft | 3 kts | 49° |
| 2026-05-08 05:14 | 14.52096 | 121.00986 | 64 ft | 3 kts | 56° |
| 2026-05-08 05:15 | 14.52086 | 121.00971 | 64 ft | 2 kts | 76° |
| 2026-05-08 05:15 | 14.52082 | 121.00959 | 64 ft | 2 kts | 102° |
| 2026-05-08 05:15 | 14.52084 | 121.00947 | 64 ft | 2 kts | 122° |
| 2026-05-08 05:15 | 14.52090 | 121.00937 | 64 ft | 2 kts | 131° |
| 2026-05-08 05:16 | 14.52095 | 121.00931 | 64 ft | 0 kts | 133° |
| 2026-05-08 05:18 | 14.52092 | 121.00934 | 64 ft | 3 kts | 133° |
| 2026-05-08 05:18 | 14.52055 | 121.00975 | 66 ft | 10 kts | 133° |
| 2026-05-08 05:18 | 14.52002 | 121.01029 | 71 ft | 11 kts | 136° |
| 2026-05-08 05:19 | 14.51945 | 121.01087 | 69 ft | 12 kts | 135° |
| 2026-05-08 05:19 | 14.51883 | 121.01151 | 66 ft | 15 kts | 135° |
| 2026-05-08 05:19 | 14.51792 | 121.01244 | 64 ft | 19 kts | 135° |
| 2026-05-08 05:19 | 14.51696 | 121.01343 | 72 ft | 20 kts | 135° |
| 2026-05-08 05:20 | 14.51599 | 121.01443 | 64 ft | 20 kts | 135° |
| 2026-05-08 05:20 | 14.51505 | 121.01539 | 64 ft | 15 kts | 135° |
| 2026-05-08 05:20 | 14.51436 | 121.01581 | 67 ft | 11 kts | 176° |
| 2026-05-08 05:20 | 14.51358 | 121.01590 | 65 ft | 12 kts | 151° |
| 2026-05-08 05:21 | 14.51297 | 121.01650 | 67 ft | 12 kts | 134° |
| 2026-05-08 05:21 | 14.51234 | 121.01714 | 64 ft | 13 kts | 135° |
| 2026-05-08 05:21 | 14.51179 | 121.01770 | 64 ft | 11 kts | 136° |
| 2026-05-08 05:21 | 14.51130 | 121.01819 | 64 ft | 6 kts | 136° |
| 2026-05-08 05:22 | 14.51100 | 121.01850 | 67 ft | 0 kts | 134° |
| 2026-05-08 05:22 | 14.51097 | 121.01853 | 69 ft | 0 kts | 134° |
| 2026-05-08 05:24 | 14.51070 | 121.01882 | 64 ft | 15 kts | 134° |
| 2026-05-08 05:24 | 14.51002 | 121.01905 | 67 ft | 11 kts | 200° |
| 2026-05-08 05:24 | 14.50973 | 121.01864 | 66 ft | 11 kts | 239° |
| 2026-05-08 05:25 | 14.50916 | 121.01765 | 64 ft | 20 kts | 239° |
| 2026-05-08 05:25 | 14.50842 | 121.01634 | 65 ft | 12 kts | 240° |
| 2026-05-08 05:25 | 14.50811 | 121.01579 | 69 ft | 14 kts | 240° |
| 2026-05-08 05:25 | 14.50776 | 121.01512 | 64 ft | 11 kts | 241° |
| 2026-05-08 05:26 | 14.50735 | 121.01436 | 68 ft | 13 kts | 240° |
| 2026-05-08 05:26 | 14.50673 | 121.01327 | 66 ft | 25 kts | 239° |
| 2026-05-08 05:26 | 14.50576 | 121.01156 | 67 ft | 29 kts | 239° |
| 2026-05-08 05:26 | 14.50470 | 121.00979 | 64 ft | 29 kts | 239° |
| 2026-05-08 05:27 | 14.50377 | 121.00794 | 66 ft | 30 kts | 240° |
| 2026-05-08 05:27 | 14.50271 | 121.00605 | 65 ft | 30 kts | 239° |
| 2026-05-08 05:27 | 14.50167 | 121.00419 | 64 ft | 31 kts | 240° |
| 2026-05-08 05:27 | 14.50062 | 121.00229 | 65 ft | 30 kts | 241° |
| 2026-05-08 05:28 | 14.49964 | 121.00052 | 66 ft | 19 kts | 240° |
| 2026-05-08 05:28 | 14.49918 | 120.99978 | 67 ft | 10 kts | 226° |
| 2026-05-08 05:28 | 14.49882 | 120.99968 | 66 ft | 0 kts | 177° |
| 2026-05-08 05:28 | 14.49869 | 120.99971 | 70 ft | 5 kts | 169° |
| 2026-05-08 05:29 | 14.49818 | 121.00013 | 68 ft | 11 kts | 120° |
| 2026-05-08 05:29 | 14.49831 | 121.00089 | 72 ft | 12 kts | 64° |
| 2026-05-08 05:29 | 14.49920 | 121.00250 | 64 ft | 56 kts | 61° |
| 2026-05-08 05:29 | 14.50264 | 121.00867 | 65 ft | 139 kts | 60° |
| 2026-05-08 05:30 | 14.50841 | 121.01889 | 332 ft | 175 kts | 63° |
| 2026-05-08 05:30 | 14.51442 | 121.02962 | 1230 ft | 173 kts | 62° |
| 2026-05-08 05:30 | 14.52033 | 121.04014 | 2244 ft | 171 kts | 61° |
| 2026-05-08 05:30 | 14.52660 | 121.05113 | 2822 ft | 186 kts | 60° |
| 2026-05-08 05:31 | 14.53364 | 121.06325 | 3351 ft | 207 kts | 61° |
| 2026-05-08 05:31 | 14.54137 | 121.07669 | 3818 ft | 228 kts | 60° |
| 2026-05-08 05:31 | 14.54984 | 121.09145 | 4240 ft | 249 kts | 62° |
| 2026-05-08 05:31 | 14.55476 | 121.10903 | 4718 ft | 261 kts | 88° |
| 2026-05-08 05:32 | 14.55130 | 121.12742 | 5440 ft | 267 kts | 112° |
| 2026-05-08 05:32 | 14.54015 | 121.14283 | 6156 ft | 272 kts | 136° |
| 2026-05-08 05:32 | 14.52493 | 121.15479 | 6820 ft | 278 kts | 143° |
| 2026-05-08 05:32 | 14.50919 | 121.16644 | 7532 ft | 279 kts | 141° |
| 2026-05-08 05:33 | 14.49394 | 121.17903 | 8227 ft | 283 kts | 138° |
| 2026-05-08 05:33 | 14.47913 | 121.19262 | 8950 ft | 286 kts | 135° |
| 2026-05-08 05:33 | 14.46472 | 121.20690 | 9646 ft | 290 kts | 134° |
| 2026-05-08 05:33 | 14.45032 | 121.22164 | 10199 ft | 294 kts | 133° |
| 2026-05-08 05:34 | 14.43536 | 121.23702 | 10397 ft | 313 kts | 134° |
| 2026-05-08 05:34 | 14.41941 | 121.25333 | 10563 ft | 332 kts | 134° |
| 2026-05-08 05:34 | 14.40261 | 121.27042 | 10864 ft | 343 kts | 134° |
| 2026-05-08 05:34 | 14.38555 | 121.28776 | 11411 ft | 346 kts | 134° |
| 2026-05-08 05:35 | 14.36828 | 121.30527 | 11966 ft | 349 kts | 134° |
| 2026-05-08 05:35 | 14.35087 | 121.32292 | 12492 ft | 353 kts | 134° |
| 2026-05-08 05:35 | 14.33331 | 121.34073 | 13072 ft | 355 kts | 134° |
| 2026-05-08 05:35 | 14.31559 | 121.35871 | 13624 ft | 359 kts | 134° |
| 2026-05-08 05:36 | 14.29775 | 121.37681 | 14124 ft | 361 kts | 134° |
| 2026-05-08 05:36 | 14.27977 | 121.39504 | 14636 ft | 363 kts | 134° |
| 2026-05-08 05:36 | 14.26197 | 121.41312 | 15118 ft | 366 kts | 134° |
| 2026-05-08 05:36 | 14.24379 | 121.43154 | 15642 ft | 368 kts | 134° |
| 2026-05-08 05:37 | 14.22546 | 121.45007 | 16136 ft | 370 kts | 134° |
| 2026-05-08 05:37 | 14.20702 | 121.46871 | 16598 ft | 373 kts | 134° |
| 2026-05-08 05:37 | 14.18850 | 121.48746 | 17108 ft | 374 kts | 134° |
| 2026-05-08 05:37 | 14.16991 | 121.50629 | 17559 ft | 376 kts | 134° |
| 2026-05-08 05:38 | 14.15093 | 121.52551 | 17995 ft | 379 kts | 134° |
| 2026-05-08 05:38 | 14.13209 | 121.54459 | 18441 ft | 381 kts | 134° |
| 2026-05-08 05:38 | 14.11307 | 121.56383 | 18800 ft | 385 kts | 134° |
| 2026-05-08 05:38 | 14.09417 | 121.58295 | 19221 ft | 387 kts | 134° |
| 2026-05-08 05:39 | 14.07489 | 121.60242 | 19627 ft | 390 kts | 134° |
| 2026-05-08 05:39 | 14.05542 | 121.62208 | 19998 ft | 393 kts | 134° |
| 2026-05-08 05:39 | 14.03580 | 121.64187 | 20408 ft | 396 kts | 134° |
| 2026-05-08 05:39 | 14.01607 | 121.66181 | 20808 ft | 399 kts | 134° |
| 2026-05-08 05:40 | 13.99620 | 121.68189 | 21221 ft | 402 kts | 134° |
| 2026-05-08 05:40 | 13.97617 | 121.70211 | 21630 ft | 405 kts | 134° |
| 2026-05-08 05:40 | 13.95595 | 121.72252 | 22030 ft | 408 kts | 134° |
| 2026-05-08 05:40 | 13.93559 | 121.74304 | 22428 ft | 411 kts | 134° |
| 2026-05-08 05:41 | 13.91506 | 121.76372 | 22840 ft | 414 kts | 135° |
| 2026-05-08 05:41 | 13.89438 | 121.78455 | 23240 ft | 418 kts | 134° |
| 2026-05-08 05:41 | 13.87358 | 121.80554 | 23631 ft | 420 kts | 135° |
| 2026-05-08 05:41 | 13.85378 | 121.82777 | 23974 ft | 422 kts | 129° |
| 2026-05-08 05:42 | 13.83500 | 121.85105 | 24341 ft | 424 kts | 129° |
| 2026-05-08 05:42 | 13.81606 | 121.87441 | 24727 ft | 426 kts | 129° |
| 2026-05-08 05:42 | 13.79698 | 121.89786 | 25076 ft | 429 kts | 129° |
| 2026-05-08 05:42 | 13.77774 | 121.92146 | 25445 ft | 431 kts | 129° |
| 2026-05-08 05:43 | 13.75843 | 121.94513 | 25813 ft | 433 kts | 129° |
| 2026-05-08 05:43 | 13.73897 | 121.96896 | 26166 ft | 436 kts | 130° |
| 2026-05-08 05:43 | 13.71944 | 121.99287 | 26538 ft | 438 kts | 130° |
| 2026-05-08 05:43 | 13.69978 | 122.01694 | 26894 ft | 440 kts | 130° |
| 2026-05-08 05:44 | 13.68002 | 122.04112 | 27240 ft | 443 kts | 130° |
| 2026-05-08 05:44 | 13.66015 | 122.06543 | 27585 ft | 445 kts | 130° |
| 2026-05-08 05:44 | 13.64017 | 122.08986 | 27933 ft | 448 kts | 130° |
| 2026-05-08 05:44 | 13.62008 | 122.11443 | 28279 ft | 450 kts | 130° |
| 2026-05-08 05:45 | 13.59990 | 122.13910 | 28632 ft | 452 kts | 130° |
| 2026-05-08 05:45 | 13.57961 | 122.16390 | 28967 ft | 455 kts | 130° |
| 2026-05-08 05:45 | 13.55917 | 122.18887 | 29270 ft | 458 kts | 130° |
| 2026-05-08 05:45 | 13.53862 | 122.21397 | 29600 ft | 460 kts | 130° |
| 2026-05-08 05:46 | 13.51795 | 122.23920 | 29933 ft | 463 kts | 130° |
| 2026-05-08 05:46 | 13.49717 | 122.26457 | 30225 ft | 465 kts | 131° |
| 2026-05-08 05:46 | 13.47626 | 122.29009 | 30500 ft | 468 kts | 131° |
| 2026-05-08 05:46 | 13.45524 | 122.31574 | 30815 ft | 471 kts | 131° |
| 2026-05-08 05:47 | 13.43408 | 122.34154 | 31112 ft | 473 kts | 131° |
| 2026-05-08 05:47 | 13.41278 | 122.36752 | 31413 ft | 476 kts | 131° |
| 2026-05-08 05:47 | 13.39138 | 122.39361 | 31679 ft | 479 kts | 131° |
| 2026-05-08 05:47 | 13.37015 | 122.41948 | 31954 ft | 482 kts | 131° |
| 2026-05-08 05:48 | 13.34851 | 122.44584 | 32214 ft | 484 kts | 131° |
| 2026-05-08 05:48 | 13.32676 | 122.47233 | 32448 ft | 486 kts | 131° |
| 2026-05-08 05:48 | 13.30489 | 122.49896 | 32656 ft | 489 kts | 132° |
| 2026-05-08 05:48 | 13.28293 | 122.52568 | 32840 ft | 491 kts | 132° |
| 2026-05-08 05:49 | 13.26087 | 122.55254 | 33013 ft | 493 kts | 132° |
| 2026-05-08 05:49 | 13.23873 | 122.57946 | 33158 ft | 494 kts | 132° |
| 2026-05-08 05:49 | 13.21653 | 122.60645 | 33304 ft | 496 kts | 132° |
| 2026-05-08 05:49 | 13.19425 | 122.63351 | 33466 ft | 496 kts | 132° |
| 2026-05-08 05:50 | 13.17196 | 122.66059 | 33601 ft | 497 kts | 132° |
| 2026-05-08 05:50 | 13.14968 | 122.68766 | 33764 ft | 497 kts | 132° |
| 2026-05-08 05:50 | 13.12733 | 122.71480 | 33919 ft | 497 kts | 132° |
| 2026-05-08 05:50 | 13.10503 | 122.74188 | 34084 ft | 497 kts | 132° |
| 2026-05-08 05:51 | 13.08272 | 122.76896 | 34232 ft | 497 kts | 132° |
| 2026-05-08 05:51 | 13.06041 | 122.79603 | 34399 ft | 497 kts | 132° |
| 2026-05-08 05:51 | 13.03810 | 122.82308 | 34558 ft | 496 kts | 132° |
| 2026-05-08 05:51 | 13.01581 | 122.85010 | 34726 ft | 496 kts | 132° |
| 2026-05-08 05:52 | 12.99355 | 122.87708 | 34880 ft | 496 kts | 132° |
| 2026-05-08 05:52 | 12.97128 | 122.90407 | 35046 ft | 495 kts | 132° |
| 2026-05-08 05:52 | 12.94903 | 122.93102 | 35214 ft | 495 kts | 132° |
| 2026-05-08 05:52 | 12.92678 | 122.95797 | 35391 ft | 495 kts | 132° |
| 2026-05-08 05:53 | 12.90454 | 122.98489 | 35569 ft | 495 kts | 132° |
| 2026-05-08 05:53 | 12.88233 | 123.01176 | 35761 ft | 494 kts | 132° |
| 2026-05-08 05:53 | 12.86011 | 123.03864 | 35952 ft | 494 kts | 132° |
| 2026-05-08 05:53 | 12.83791 | 123.06550 | 36142 ft | 493 kts | 132° |
| 2026-05-08 05:54 | 12.81573 | 123.09232 | 36337 ft | 493 kts | 132° |
| 2026-05-08 05:54 | 12.79355 | 123.11912 | 36537 ft | 493 kts | 132° |
| 2026-05-08 05:54 | 12.77140 | 123.14589 | 36740 ft | 493 kts | 132° |
| 2026-05-08 05:54 | 12.74925 | 123.17265 | 36944 ft | 492 kts | 132° |
| 2026-05-08 05:55 | 12.72711 | 123.19939 | 37147 ft | 492 kts | 132° |
| 2026-05-08 05:55 | 12.70500 | 123.22608 | 37347 ft | 491 kts | 133° |
| 2026-05-08 05:55 | 12.68290 | 123.25276 | 37536 ft | 491 kts | 133° |
| 2026-05-08 05:55 | 12.66080 | 123.27943 | 37729 ft | 491 kts | 133° |
| 2026-05-08 05:56 | 12.63868 | 123.30611 | 37917 ft | 491 kts | 133° |
| 2026-05-08 05:56 | 12.61661 | 123.33272 | 38105 ft | 491 kts | 133° |
| 2026-05-08 05:56 | 12.59453 | 123.35934 | 38301 ft | 490 kts | 133° |
| 2026-05-08 05:56 | 12.57242 | 123.38599 | 38464 ft | 491 kts | 133° |
| 2026-05-08 05:57 | 12.55035 | 123.41258 | 38620 ft | 490 kts | 133° |
| 2026-05-08 05:57 | 12.52827 | 123.43918 | 38789 ft | 490 kts | 133° |
| 2026-05-08 05:57 | 12.50620 | 123.46575 | 38840 ft | 489 kts | 133° |
| 2026-05-08 05:58 | 12.46217 | 123.51874 | 38840 ft | 489 kts | 133° |
| 2026-05-08 05:58 | 12.41812 | 123.57170 | 38844 ft | 489 kts | 133° |
| 2026-05-08 05:59 | 12.37044 | 123.62082 | 38839 ft | 486 kts | 143° |
| 2026-05-08 05:59 | 12.31584 | 123.66003 | 38839 ft | 481 kts | 153° |
| 2026-05-08 06:00 | 12.25705 | 123.69232 | 38834 ft | 480 kts | 154° |
| 2026-05-08 06:00 | 12.19826 | 123.72475 | 38832 ft | 480 kts | 154° |
| 2026-05-08 06:01 | 12.13950 | 123.75719 | 38832 ft | 480 kts | 154° |
| 2026-05-08 06:01 | 12.08069 | 123.78962 | 38836 ft | 481 kts | 154° |
| 2026-05-08 06:02 | 12.02186 | 123.82203 | 38837 ft | 480 kts | 154° |
| 2026-05-08 06:02 | 11.96298 | 123.85445 | 38834 ft | 481 kts | 154° |
| 2026-05-08 06:03 | 11.90411 | 123.88685 | 38834 ft | 481 kts | 154° |
| 2026-05-08 06:03 | 11.84524 | 123.91924 | 38835 ft | 481 kts | 154° |
| 2026-05-08 06:04 | 11.78637 | 123.95161 | 38837 ft | 481 kts | 154° |
| 2026-05-08 06:04 | 11.72747 | 123.98399 | 38828 ft | 481 kts | 154° |
| 2026-05-08 06:05 | 11.66856 | 124.01635 | 38830 ft | 481 kts | 154° |
| 2026-05-08 06:05 | 11.60959 | 124.04872 | 38829 ft | 482 kts | 154° |
| 2026-05-08 06:06 | 11.55052 | 124.08114 | 38826 ft | 482 kts | 154° |
| 2026-05-08 06:06 | 11.49178 | 124.11336 | 38829 ft | 483 kts | 154° |
| 2026-05-08 06:07 | 11.43256 | 124.14583 | 38831 ft | 484 kts | 154° |
| 2026-05-08 06:07 | 11.37331 | 124.17830 | 38835 ft | 484 kts | 154° |
| 2026-05-08 06:08 | 11.31394 | 124.21082 | 38833 ft | 484 kts | 154° |
| 2026-05-08 06:08 | 11.25457 | 124.24332 | 38832 ft | 485 kts | 154° |
| 2026-05-08 06:09 | 11.19511 | 124.27586 | 38836 ft | 485 kts | 154° |
| 2026-05-08 06:09 | 11.14570 | 124.30289 | 38834 ft | 485 kts | 154° |
| 2026-05-08 06:10 | 11.07615 | 124.34092 | 38836 ft | 486 kts | 154° |
| 2026-05-08 06:10 | 11.01649 | 124.37321 | 38836 ft | 486 kts | 155° |
| 2026-05-08 06:11 | 10.96683 | 124.39989 | 38840 ft | 486 kts | 154° |
| 2026-05-08 06:11 | 10.90708 | 124.43202 | 38838 ft | 486 kts | 154° |
| 2026-05-08 06:12 | 10.84730 | 124.46419 | 38843 ft | 486 kts | 154° |
| 2026-05-08 06:12 | 10.78752 | 124.49636 | 38839 ft | 486 kts | 154° |
| 2026-05-08 06:13 | 10.72784 | 124.52861 | 38840 ft | 486 kts | 154° |
| 2026-05-08 06:13 | 10.66828 | 124.56102 | 38842 ft | 486 kts | 154° |
| 2026-05-08 06:14 | 10.60871 | 124.59339 | 38838 ft | 485 kts | 154° |
| 2026-05-08 06:14 | 10.54921 | 124.62568 | 38839 ft | 485 kts | 154° |
| 2026-05-08 06:15 | 10.48968 | 124.65797 | 38837 ft | 485 kts | 154° |
| 2026-05-08 06:15 | 10.43024 | 124.69021 | 38834 ft | 484 kts | 154° |
| 2026-05-08 06:16 | 10.37080 | 124.72244 | 38832 ft | 484 kts | 154° |
| 2026-05-08 06:16 | 10.31178 | 124.75441 | 38830 ft | 484 kts | 154° |
| 2026-05-08 06:17 | 10.22267 | 124.80266 | 38824 ft | 484 kts | 154° |
| 2026-05-08 06:17 | 10.16324 | 124.83481 | 38824 ft | 484 kts | 154° |
| 2026-05-08 06:18 | 10.10379 | 124.86694 | 38822 ft | 484 kts | 154° |
| 2026-05-08 06:18 | 10.04442 | 124.89903 | 38819 ft | 484 kts | 154° |
| 2026-05-08 06:19 | 9.98505 | 124.93111 | 38813 ft | 483 kts | 154° |
| 2026-05-08 06:19 | 9.92567 | 124.96319 | 38813 ft | 483 kts | 154° |
| 2026-05-08 06:20 | 9.86633 | 124.99523 | 38812 ft | 483 kts | 154° |
| 2026-05-08 06:20 | 9.80701 | 125.02724 | 38810 ft | 483 kts | 154° |
| 2026-05-08 06:21 | 9.74769 | 125.05925 | 38811 ft | 483 kts | 153° |
| 2026-05-08 06:21 | 9.68839 | 125.09118 | 38809 ft | 483 kts | 153° |
| 2026-05-08 06:22 | 9.62909 | 125.12311 | 38808 ft | 483 kts | 153° |
| 2026-05-08 06:22 | 9.56976 | 125.15496 | 38805 ft | 482 kts | 154° |
| 2026-05-08 06:23 | 9.51039 | 125.18658 | 38805 ft | 482 kts | 154° |
| 2026-05-08 06:23 | 9.45143 | 125.21798 | 38809 ft | 482 kts | 154° |
| 2026-05-08 06:24 | 9.39170 | 125.24980 | 38807 ft | 482 kts | 153° |
| 2026-05-08 06:24 | 9.33242 | 125.28141 | 38804 ft | 481 kts | 153° |
| 2026-05-08 06:25 | 9.27317 | 125.31297 | 38804 ft | 481 kts | 153° |
| 2026-05-08 06:25 | 9.21430 | 125.34431 | 38808 ft | 481 kts | 153° |
| 2026-05-08 06:26 | 9.15506 | 125.37580 | 38812 ft | 481 kts | 153° |
| 2026-05-08 06:26 | 9.09586 | 125.40727 | 38814 ft | 481 kts | 153° |
| 2026-05-08 06:27 | 9.03668 | 125.43874 | 38566 ft | 480 kts | 153° |
| 2026-05-08 06:27 | 9.00708 | 125.45446 | 38312 ft | 480 kts | 153° |
| 2026-05-08 06:27 | 8.97675 | 125.46852 | 38047 ft | 480 kts | 160° |
| 2026-05-08 06:28 | 8.94517 | 125.47936 | 37780 ft | 480 kts | 165° |
| 2026-05-08 06:28 | 8.91269 | 125.48709 | 37193 ft | 480 kts | 171° |
| 2026-05-08 06:28 | 8.87948 | 125.49159 | 36293 ft | 483 kts | 176° |
| 2026-05-08 06:28 | 8.84588 | 125.49474 | 35093 ft | 489 kts | 175° |
| 2026-05-08 06:29 | 8.81176 | 125.49804 | 33764 ft | 495 kts | 175° |
| 2026-05-08 06:29 | 8.77738 | 125.50146 | 32498 ft | 496 kts | 174° |
| 2026-05-08 06:29 | 8.74320 | 125.50491 | 31322 ft | 493 kts | 174° |
| 2026-05-08 06:29 | 8.70918 | 125.50836 | 30379 ft | 488 kts | 174° |
| 2026-05-08 06:30 | 8.67565 | 125.51176 | 29709 ft | 480 kts | 174° |
| 2026-05-08 06:30 | 8.64282 | 125.51509 | 29211 ft | 469 kts | 174° |
| 2026-05-08 06:30 | 8.61059 | 125.51835 | 28579 ft | 462 kts | 173° |
| 2026-05-08 06:30 | 8.57882 | 125.52157 | 27916 ft | 456 kts | 173° |
| 2026-05-08 06:31 | 8.54743 | 125.52475 | 27275 ft | 451 kts | 173° |
| 2026-05-08 06:31 | 8.51637 | 125.52789 | 26601 ft | 447 kts | 173° |
| 2026-05-08 06:31 | 8.48550 | 125.53079 | 25982 ft | 442 kts | 173° |
| 2026-05-08 06:31 | 8.45494 | 125.53348 | 25322 ft | 440 kts | 173° |
| 2026-05-08 06:32 | 8.42463 | 125.53612 | 24688 ft | 436 kts | 173° |
| 2026-05-08 06:32 | 8.39457 | 125.53876 | 24069 ft | 432 kts | 173° |
| 2026-05-08 06:32 | 8.36479 | 125.54140 | 23442 ft | 429 kts | 173° |
| 2026-05-08 06:32 | 8.33557 | 125.54401 | 22809 ft | 424 kts | 173° |
| 2026-05-08 06:33 | 8.30602 | 125.54667 | 22181 ft | 418 kts | 173° |
| 2026-05-08 06:33 | 8.27767 | 125.54922 | 21572 ft | 412 kts | 173° |
| 2026-05-08 06:33 | 8.24934 | 125.55175 | 20965 ft | 406 kts | 173° |
| 2026-05-08 06:33 | 8.22136 | 125.55425 | 20340 ft | 401 kts | 173° |
| 2026-05-08 06:34 | 8.19373 | 125.55674 | 19721 ft | 396 kts | 173° |
| 2026-05-08 06:34 | 8.16647 | 125.55920 | 19143 ft | 390 kts | 173° |
| 2026-05-08 06:34 | 8.13953 | 125.56162 | 18555 ft | 386 kts | 173° |
| 2026-05-08 06:34 | 8.11281 | 125.56403 | 17930 ft | 382 kts | 173° |
| 2026-05-08 06:35 | 8.08648 | 125.56638 | 17341 ft | 376 kts | 173° |
| 2026-05-08 06:35 | 8.06057 | 125.56869 | 16768 ft | 370 kts | 173° |
| 2026-05-08 06:35 | 8.03497 | 125.57099 | 16195 ft | 377 kts | 173° |
| 2026-05-08 06:35 | 8.00799 | 125.57346 | 15716 ft | 397 kts | 173° |
| 2026-05-08 06:36 | 7.98044 | 125.57594 | 15190 ft | 398 kts | 173° |
| 2026-05-08 06:36 | 7.95296 | 125.58017 | 14409 ft | 400 kts | 165° |
| 2026-05-08 06:36 | 7.92594 | 125.58637 | 13705 ft | 396 kts | 165° |
| 2026-05-08 06:36 | 7.89942 | 125.59238 | 13046 ft | 385 kts | 165° |
| 2026-05-08 06:37 | 7.87367 | 125.59816 | 12462 ft | 374 kts | 165° |
| 2026-05-08 06:37 | 7.84862 | 125.60376 | 11895 ft | 363 kts | 165° |
| 2026-05-08 06:37 | 7.82423 | 125.60923 | 11333 ft | 355 kts | 165° |
| 2026-05-08 06:37 | 7.80047 | 125.61452 | 10766 ft | 346 kts | 165° |
| 2026-05-08 06:38 | 7.77724 | 125.61971 | 10202 ft | 338 kts | 165° |
| 2026-05-08 06:38 | 7.75488 | 125.62472 | 10018 ft | 320 kts | 165° |
| 2026-05-08 06:38 | 7.73379 | 125.62942 | 9751 ft | 303 kts | 165° |
| 2026-05-08 06:38 | 7.71340 | 125.63398 | 9236 ft | 297 kts | 165° |
| 2026-05-08 06:39 | 7.69361 | 125.63843 | 9012 ft | 290 kts | 165° |
| 2026-05-08 06:39 | 7.67366 | 125.64294 | 8890 ft | 295 kts | 165° |
| 2026-05-08 06:39 | 7.65372 | 125.64744 | 8768 ft | 292 kts | 165° |
| 2026-05-08 06:39 | 7.63392 | 125.65187 | 8647 ft | 291 kts | 165° |
| 2026-05-08 06:40 | 7.61411 | 125.65627 | 8514 ft | 291 kts | 165° |
| 2026-05-08 06:40 | 7.59431 | 125.66067 | 8196 ft | 291 kts | 165° |
| 2026-05-08 06:40 | 7.57468 | 125.66505 | 7820 ft | 286 kts | 165° |
| 2026-05-08 06:40 | 7.55561 | 125.66932 | 7463 ft | 275 kts | 165° |
| 2026-05-08 06:41 | 7.53729 | 125.67341 | 7121 ft | 264 kts | 165° |
| 2026-05-08 06:41 | 7.51962 | 125.67738 | 6781 ft | 262 kts | 165° |
| 2026-05-08 06:41 | 7.50053 | 125.68172 | 6421 ft | 296 kts | 165° |
| 2026-05-08 06:41 | 7.48032 | 125.68626 | 6314 ft | 294 kts | 166° |
| 2026-05-08 06:42 | 7.46171 | 125.69039 | 6015 ft | 284 kts | 166° |
| 2026-05-08 06:42 | 7.44252 | 125.69471 | 5268 ft | 282 kts | 166° |
| 2026-05-08 06:42 | 7.42369 | 125.69893 | 4919 ft | 270 kts | 166° |
| 2026-05-08 06:42 | 7.40573 | 125.70290 | 4588 ft | 259 kts | 166° |
| 2026-05-08 06:43 | 7.38840 | 125.70675 | 4244 ft | 253 kts | 166° |
| 2026-05-08 06:43 | 7.37017 | 125.71079 | 4037 ft | 277 kts | 167° |
| 2026-05-08 06:43 | 7.35196 | 125.71487 | 4014 ft | 256 kts | 166° |
| 2026-05-08 06:43 | 7.33547 | 125.71896 | 3967 ft | 234 kts | 160° |
| 2026-05-08 06:44 | 7.32170 | 125.72639 | 3845 ft | 218 kts | 141° |
| 2026-05-08 06:44 | 7.31072 | 125.73621 | 3772 ft | 206 kts | 135° |
| 2026-05-08 06:44 | 7.30033 | 125.74570 | 3650 ft | 199 kts | 136° |
| 2026-05-08 06:44 | 7.29002 | 125.75478 | 3397 ft | 200 kts | 138° |
| 2026-05-08 06:45 | 7.27929 | 125.76402 | 3134 ft | 202 kts | 139° |
| 2026-05-08 06:45 | 7.26813 | 125.77243 | 2897 ft | 197 kts | 155° |
| 2026-05-08 06:45 | 7.25529 | 125.77314 | 2800 ft | 181 kts | 200° |
| 2026-05-08 06:45 | 7.24513 | 125.76702 | 2735 ft | 168 kts | 218° |
| 2026-05-08 06:46 | 7.23602 | 125.75987 | 2671 ft | 169 kts | 220° |
| 2026-05-08 06:46 | 7.22700 | 125.75236 | 2561 ft | 166 kts | 221° |
| 2026-05-08 06:46 | 7.21835 | 125.74481 | 2392 ft | 166 kts | 222° |
| 2026-05-08 06:46 | 7.20998 | 125.73716 | 2201 ft | 156 kts | 223° |
| 2026-05-08 06:47 | 7.20150 | 125.73090 | 1925 ft | 145 kts | 212° |
| 2026-05-08 06:47 | 7.19347 | 125.72420 | 1682 ft | 155 kts | 224° |
| 2026-05-08 06:47 | 7.18636 | 125.71631 | 1414 ft | 150 kts | 227° |
| 2026-05-08 06:47 | 7.17918 | 125.70773 | 1318 ft | 175 kts | 230° |
| 2026-05-08 06:48 | 7.17061 | 125.69766 | 1184 ft | 195 kts | 227° |
| 2026-05-08 06:48 | 7.16199 | 125.68811 | 954 ft | 176 kts | 226° |
| 2026-05-08 06:48 | 7.15438 | 125.67907 | 660 ft | 163 kts | 228° |
| 2026-05-08 06:48 | 7.14741 | 125.67092 | 431 ft | 145 kts | 226° |
| 2026-05-08 06:49 | 7.14072 | 125.66324 | 301 ft | 146 kts | 227° |
| 2026-05-08 06:49 | 7.13420 | 125.65575 | 132 ft | 140 kts | 226° |
| 2026-05-08 06:49 | 7.12839 | 125.64909 | 108 ft | 101 kts | 229° |
| 2026-05-08 06:49 | 7.12500 | 125.64514 | 106 ft | 57 kts | 230° |
| 2026-05-08 06:50 | 7.12257 | 125.64230 | 107 ft | 46 kts | 229° |
| 2026-05-08 06:50 | 7.12100 | 125.64047 | 108 ft | 31 kts | 229° |
| 2026-05-08 06:50 | 7.11959 | 125.63888 | 108 ft | 30 kts | 228° |
| 2026-05-08 06:50 | 7.11823 | 125.63730 | 107 ft | 30 kts | 230° |
| 2026-05-08 06:51 | 7.11756 | 125.63611 | 106 ft | 14 kts | 264° |
| 2026-05-08 06:51 | 7.11710 | 125.63540 | 106 ft | 11 kts | 187° |
| 2026-05-08 06:51 | 7.11694 | 125.63577 | 106 ft | 4 kts | 72° |
| 2026-05-08 06:51 | 7.11749 | 125.63641 | 106 ft | 24 kts | 50° |
| 2026-05-08 06:52 | 7.11867 | 125.63780 | 108 ft | 27 kts | 46° |
| 2026-05-08 06:52 | 7.11994 | 125.63926 | 108 ft | 31 kts | 49° |
| 2026-05-08 06:52 | 7.12149 | 125.64108 | 106 ft | 36 kts | 49° |
| 2026-05-08 06:52 | 7.12314 | 125.64298 | 107 ft | 36 kts | 49° |
| 2026-05-08 06:53 | 7.12473 | 125.64483 | 107 ft | 30 kts | 49° |
| 2026-05-08 06:53 | 7.12545 | 125.64560 | 106 ft | 11 kts | 34° |
| 2026-05-08 06:53 | 7.12597 | 125.64532 | 106 ft | 10 kts | 309° |
| 2026-05-08 06:53 | 7.12673 | 125.64467 | 107 ft | 11 kts | 321° |
| 2026-05-08 06:54 | 7.12738 | 125.64460 | 107 ft | 11 kts | 19° |
| 2026-05-08 06:54 | 7.12813 | 125.64534 | 107 ft | 14 kts | 49° |
| 2026-05-08 06:54 | 7.12871 | 125.64537 | 107 ft | 2 kts | 330° |
| 2026-05-08 06:54 | 7.12891 | 125.64521 | 107 ft | 5 kts | 322° |
| 2026-05-08 06:55 | 7.12913 | 125.64503 | 107 ft | 2 kts | 321° |
| 2026-05-08 06:55 | 7.12914 | 125.64502 | 107 ft | 0 kts | 321° |